Time;durP1;ratioP1;P1;durP2;ratioP2;P2;SDS_P1;SDS_P2;PMS_P1;PMS_P2;Temp;Humidity;BMP_temperature;BMP_pressure;BME280_temperature;BME280_humidity;BME280_pressure;Samples;Min_cycle;Max_cycle;Signal;HPM_P1;HPM_P2
2023/01/31 00:00:24;;;;;;;8.00;3.03;;;5.50;99.90;;;;;;4790531;29;20231;-79
2023/01/31 00:03:19;;;;;;;9.33;3.33;;;5.50;99.90;;;;;;4812834;24;20220;-80
2023/01/31 00:06:26;;;;;;;11.73;3.37;;;5.50;99.90;;;;;;4758624;30;20220;-80
2023/01/31 00:09:04;;;;;;;8.30;3.00;;;5.50;99.90;;;;;;4749772;30;20247;-78
2023/01/31 00:11:54;;;;;;;9.33;3.57;;;5.50;99.90;;;;;;4749664;30;20208;-80
2023/01/31 00:20:06;;;;;;;10.70;3.37;;;5.40;99.90;;;;;;4841518;29;20261;-79
2023/01/31 00:29:10;;;;;;;11.60;2.70;;;5.40;99.90;;;;;;4769579;29;20246;-80
2023/01/31 00:31:40;;;;;;;10.80;5.07;;;5.40;99.90;;;;;;4814744;23;20251;-83
2023/01/31 00:34:21;;;;;;;10.60;5.23;;;5.40;99.90;;;;;;4842370;29;20198;-81
2023/01/31 00:36:50;;;;;;;12.73;3.63;;;5.40;99.90;;;;;;4842649;29;20205;-85
2023/01/31 00:42:27;;;;;;;9.70;3.03;;;5.40;99.90;;;;;;4764737;30;20256;-84
2023/01/31 00:44:56;;;;;;;8.80;2.93;;;5.40;99.90;;;;;;4767954;30;20266;-80
2023/01/31 00:47:25;;;;;;;8.27;3.73;;;5.40;99.90;;;;;;4767749;30;20657;-85
2023/01/31 00:50:24;;;;;;;;;;;;;;;;;;;;;
2023/01/31 00:53:29;;;;;;;6.23;2.93;;;5.30;99.90;;;;;;4732366;30;20237;-82
2023/01/31 00:56:05;;;;;;;8.33;2.83;;;5.40;99.90;;;;;;4732475;30;20681;-86
2023/01/31 00:58:43;;;;;;;14.73;3.57;;;5.30;99.90;;;;;;4761932;24;20247;-86
2023/01/31 01:01:20;;;;;;;12.00;3.40;;;5.30;99.90;;;;;;4840870;29;20314;-85
2023/01/31 01:03:57;;;;;;;11.27;3.03;;;5.30;99.90;;;;;;4855843;29;20211;-81
2023/01/31 01:09:55;;;;;;;9.73;3.10;;;5.30;99.90;;;;;;4840425;29;20250;-85
2023/01/31 01:12:24;;;;;;;12.07;3.87;;;5.20;99.90;;;;;;4848614;23;20323;-84
2023/01/31 01:15:27;;;;;;;6.70;2.73;;;5.30;99.90;;;;;;4841810;29;20600;-85
2023/01/31 01:17:56;;;;;;;7.53;3.07;;;5.20;99.90;;;;;;4841946;29;20287;-85
2023/01/31 01:20:25;;;;;;;5.93;2.90;;;5.20;99.90;;;;;;4840535;29;20209;-82
2023/01/31 01:23:19;;;;;;;8.33;3.00;;;5.20;99.90;;;;;;4839773;29;20742;-85
2023/01/31 01:29:07;;;;;;;8.27;3.60;;;5.20;99.90;;;;;;4803896;29;20237;-80
2023/01/31 01:32:09;;;;;;;7.13;3.43;;;5.20;99.90;;;;;;4803648;29;20299;-86
2023/01/31 01:34:41;;;;;;;7.93;3.10;;;5.20;99.90;;;;;;4805276;29;20269;-85
2023/01/31 01:37:20;;;;;;;13.23;3.33;;;5.20;99.90;;;;;;4804108;29;20699;-84
2023/01/31 01:39:53;;;;;;;9.53;3.13;;;5.20;99.90;;;;;;4819433;29;20240;-84
2023/01/31 01:42:26;;;;;;;8.70;3.03;;;5.20;99.90;;;;;;4818943;29;20221;-84
2023/01/31 01:44:57;;;;;;;7.00;3.07;;;5.20;99.90;;;;;;4802883;29;20224;-85
2023/01/31 01:47:40;;;;;;;6.87;2.97;;;5.20;99.90;;;;;;4818779;29;20727;-83
2023/01/31 01:50:16;;;;;;;9.03;2.87;;;5.20;99.90;;;;;;4805059;29;20324;-83
2023/01/31 01:53:04;;;;;;;7.30;3.17;;;5.20;99.90;;;;;;4822397;29;20227;-82
2023/01/31 01:56:18;;;;;;;10.27;3.73;;;5.20;99.90;;;;;;4823808;29;20231;-81
2023/01/31 01:58:58;;;;;;;9.70;3.43;;;5.20;99.90;;;;;;4806435;29;20216;-81
2023/01/31 02:01:37;;;;;;;10.37;2.63;;;5.10;99.90;;;;;;4806436;29;20213;-85
2023/01/31 02:04:47;;;;;;;5.30;2.57;;;5.10;99.90;;;;;;4790165;29;20766;-80
2023/01/31 02:07:31;;;;;;;6.30;2.27;;;5.10;99.90;;;;;;4806515;29;20721;-81
2023/01/31 02:13:25;;;;;;;6.67;2.87;;;5.10;99.90;;;;;;4859559;29;20211;-81
2023/01/31 02:33:49;;;;;;;8.23;2.87;;;5.00;99.90;;;;;;4769625;30;20708;-83
2023/01/31 02:40:54;;;;;;;8.10;2.63;;;5.00;99.90;;;;;;4923504;23;20247;-85
2023/01/31 02:43:30;;;;;;;4.50;2.10;;;5.00;99.90;;;;;;4843131;29;20307;-83
2023/01/31 02:46:09;;;;;;;3.57;2.20;;;5.00;99.90;;;;;;4842603;29;20708;-82
2023/01/31 02:49:24;;;;;;;;;;;;;;;;;;;;;
2023/01/31 02:58:47;;;;;;;;;;;;;;;;;;;;;
2023/01/31 03:02:02;;;;;;;6.97;2.93;;;4.90;99.30;;;;;;4824173;29;20244;-86
2023/01/31 03:04:42;;;;;;;3.83;2.40;;;4.90;98.90;;;;;;4826165;29;20728;-86
2023/01/31 03:07:17;;;;;;;4.80;2.70;;;4.90;98.50;;;;;;4826729;29;20206;-84
2023/01/31 03:10:00;;;;;;;5.07;2.37;;;4.90;98.50;;;;;;4824226;29;20606;-84
2023/01/31 03:13:24;;;;;;;2.40;2.20;;;4.90;98.20;;;;;;4824223;29;20238;-82
2023/01/31 03:19:48;;;;;;;5.97;2.00;;;4.90;97.90;;;;;;4788441;29;20207;-81
2023/01/31 03:22:42;;;;;;;6.50;2.23;;;4.90;98.30;;;;;;4802876;29;20221;-81
2023/01/31 03:25:25;;;;;;;6.17;2.43;;;4.90;97.10;;;;;;4788951;29;20239;-81
2023/01/31 03:28:10;;;;;;;3.00;2.40;;;4.90;97.10;;;;;;4799975;29;20217;-82
2023/01/31 03:31:00;;;;;;;3.60;2.73;;;4.90;97.10;;;;;;4832838;24;20737;-82
2023/01/31 03:33:32;;;;;;;2.77;2.27;;;4.90;97.50;;;;;;4839146;29;20704;-82
2023/01/31 03:36:33;;;;;;;6.87;3.10;;;4.90;97.40;;;;;;4771898;30;20219;-82
2023/01/31 03:39:36;;;;;;;19.07;6.53;;;4.90;97.90;;;;;;4771564;30;20220;-84
2023/01/31 03:45:15;;;;;;;10.10;5.90;;;4.90;98.20;;;;;;4769609;29;20219;-80
2023/01/31 03:50:57;;;;;;;4.83;3.40;;;4.80;98.90;;;;;;4841416;29;20686;-84
2023/01/31 03:53:32;;;;;;;5.57;4.03;;;4.80;98.90;;;;;;4843089;29;20203;-84
2023/01/31 03:56:29;;;;;;;4.73;3.20;;;4.80;98.90;;;;;;4839513;29;20258;-83
2023/01/31 03:59:08;;;;;;;7.00;2.67;;;4.80;98.50;;;;;;4826371;29;20321;-80
2023/01/31 04:04:59;;;;;;;4.20;2.20;;;4.80;98.50;;;;;;4847590;23;20337;-80
2023/01/31 04:07:33;;;;;;;4.77;2.87;;;4.80;98.40;;;;;;4842715;29;20282;-81
2023/01/31 04:10:12;;;;;;;7.77;3.07;;;4.70;98.10;;;;;;4841354;29;20239;-78
2023/01/31 04:13:03;;;;;;;5.43;2.80;;;4.80;98.20;;;;;;4840688;29;20305;-79
2023/01/31 04:15:47;;;;;;;7.37;3.03;;;4.70;98.40;;;;;;4842529;29;20269;-78
2023/01/31 04:18:16;;;;;;;4.77;2.37;;;4.70;98.00;;;;;;4840561;29;20246;-78
2023/01/31 04:20:45;;;;;;;7.37;1.97;;;4.70;98.00;;;;;;4842605;29;20223;-78
2023/01/31 04:23:26;;;;;;;3.27;2.10;;;4.70;98.10;;;;;;4842715;29;20266;-79
2023/01/31 04:25:57;;;;;;;4.63;2.33;;;4.70;98.20;;;;;;4842353;29;20211;-79
2023/01/31 04:28:29;;;;;;;4.57;2.47;;;4.70;98.10;;;;;;4842438;29;20210;-83
2023/01/31 04:31:05;;;;;;;6.93;2.83;;;4.70;98.40;;;;;;4848862;24;20282;-80
2023/01/31 04:33:49;;;;;;;5.27;2.70;;;4.60;98.40;;;;;;4842424;29;20254;-81
2023/01/31 04:37:02;;;;;;;5.77;2.70;;;4.70;98.90;;;;;;4767714;30;20724;-83
2023/01/31 04:39:34;;;;;;;3.67;2.30;;;4.70;98.30;;;;;;4757706;30;20682;-80
2023/01/31 04:42:39;;;;;;;6.27;2.63;;;4.70;98.20;;;;;;4768084;30;20314;-79
2023/01/31 04:45:20;;;;;;;5.13;2.57;;;4.70;98.30;;;;;;4767918;30;20213;-80
2023/01/31 04:47:56;;;;;;;5.00;2.70;;;4.70;98.20;;;;;;4767402;30;20215;-80
2023/01/31 04:50:37;;;;;;;6.43;3.07;;;4.70;98.50;;;;;;4822313;29;20244;-80
2023/01/31 04:53:09;;;;;;;6.03;3.90;;;4.70;98.20;;;;;;4824029;29;20227;-80
2023/01/31 04:58:37;;;;;;;5.57;2.47;;;4.70;98.80;;;;;;4821761;29;20298;-81
2023/01/31 05:01:12;;;;;;;6.07;2.27;;;4.70;98.80;;;;;;4823480;29;20590;-79
2023/01/31 05:03:46;;;;;;;4.63;2.63;;;4.70;98.60;;;;;;4823306;29;20294;-78
2023/01/31 05:10:12;;;;;;;4.40;2.73;;;4.70;99.00;;;;;;4728207;30;20678;-80
2023/01/31 05:12:42;;;;;;;4.80;2.20;;;4.70;98.50;;;;;;4731036;30;20237;-79
2023/01/31 05:15:19;;;;;;;9.90;2.63;;;4.70;98.70;;;;;;4731182;30;20201;-78
2023/01/31 05:17:53;;;;;;;5.30;2.83;;;4.70;99.10;;;;;;4730491;30;20213;-78
2023/01/31 05:20:28;;;;;;;3.70;2.33;;;4.70;99.10;;;;;;4730921;30;20215;-79
2023/01/31 05:27:11;;;;;;;9.87;4.20;;;4.70;98.70;;;;;;4311260;23;15169585;-79
2023/01/31 05:29:44;;;;;;;12.13;4.20;;;4.70;99.40;;;;;;4853506;23;20241;-77
